createdAt,value
2023-01-23T00:00:21.856Z,103401.00
2023-01-23T00:02:50.931Z,103407.13
2023-01-23T00:05:20.059Z,103401.09
2023-01-23T00:07:49.101Z,103415.78
2023-01-23T00:10:18.892Z,103414.97
2023-01-23T00:12:49.943Z,103418.50
2023-01-23T00:15:19.117Z,103423.69
2023-01-23T00:17:48.389Z,103418.56
2023-01-23T00:20:18.007Z,103421.16
2023-01-23T00:22:47.164Z,103422.03
2023-01-23T00:25:16.318Z,103418.63
2023-01-23T00:27:45.341Z,103417.84
2023-01-23T00:30:16.202Z,103416.09
2023-01-23T00:32:45.335Z,103423.84
2023-01-23T00:35:14.390Z,103426.47
2023-01-23T00:37:43.558Z,103427.34
2023-01-23T00:40:14.272Z,103423.06
2023-01-23T00:42:43.307Z,103422.16
2023-01-23T00:45:12.874Z,103421.38
2023-01-23T00:47:43.624Z,103424.00
2023-01-23T00:50:14.647Z,103415.34
2023-01-23T00:52:43.640Z,103426.53
2023-01-23T00:55:12.685Z,103423.13
2023-01-23T00:57:41.742Z,103435.22
2023-01-23T01:00:12.214Z,103432.66
2023-01-23T01:02:41.289Z,103439.53
2023-01-23T01:05:11.967Z,103443.88
2023-01-23T01:07:41.084Z,103443.03
2023-01-23T01:10:11.526Z,103444.72
2023-01-23T01:12:40.614Z,103436.09
2023-01-23T01:15:11.471Z,103438.72
2023-01-23T01:17:40.896Z,103439.53
2023-01-23T01:20:12.610Z,103432.69
2023-01-23T01:22:41.745Z,103437.00
2023-01-23T01:25:11.468Z,103442.19
2023-01-23T01:27:40.663Z,103443.03
2023-01-23T01:30:10.712Z,103449.06
2023-01-23T01:32:40.671Z,103452.53
2023-01-23T01:35:12.725Z,103455.13
2023-01-23T01:37:43.016Z,103449.94
2023-01-23T01:40:16.681Z,103464.59
2023-01-23T01:42:48.730Z,103467.19
2023-01-23T01:45:55.340Z,103461.16
2023-01-23T01:48:28.081Z,103467.16
2023-01-23T01:51:00.516Z,103466.31
2023-01-23T01:53:32.137Z,103462.00
2023-01-23T01:56:02.154Z,103466.31
2023-01-23T01:58:31.979Z,103466.31
2023-01-23T02:01:01.162Z,103468.91
2023-01-23T02:03:30.515Z,103467.19
2023-01-23T02:06:01.257Z,103474.06
2023-01-23T02:08:36.597Z,103474.06
2023-01-23T02:11:07.200Z,103474.94
2023-01-23T02:13:39.291Z,103474.94
2023-01-23T02:16:11.123Z,103477.53
2023-01-23T02:18:44.587Z,103480.09
2023-01-23T02:21:16.958Z,103472.34
2023-01-23T02:23:57.749Z,103473.22
2023-01-23T02:26:32.982Z,103473.25
2023-01-23T02:29:02.290Z,103464.59
2023-01-23T02:31:37.363Z,103474.16
2023-01-23T02:34:07.888Z,103476.72
2023-01-23T02:36:37.141Z,103473.28
2023-01-23T02:39:11.179Z,103479.28
2023-01-23T02:41:44.303Z,103476.75
2023-01-23T02:44:17.343Z,103474.13
2023-01-23T02:46:51.399Z,103477.66
2023-01-23T02:49:21.838Z,103466.41
2023-01-23T02:51:51.912Z,103468.13
2023-01-23T02:54:21.543Z,103471.63
2023-01-23T02:56:52.205Z,103474.22
2023-01-23T02:59:41.010Z,103465.63
2023-01-23T03:02:10.919Z,103469.06
2023-01-23T03:04:39.965Z,103470.75
2023-01-23T03:07:09.199Z,103477.69
2023-01-23T03:09:38.276Z,103475.97
2023-01-23T03:12:09.201Z,103460.47
2023-01-23T03:14:39.308Z,103463.03
2023-01-23T03:17:11.011Z,103463.91
2023-01-23T03:19:40.140Z,103470.81
2023-01-23T03:22:09.345Z,103465.66
2023-01-23T03:24:39.055Z,103476.00
2023-01-23T03:27:09.506Z,103465.69
2023-01-23T03:30:03.777Z,103468.28
2023-01-23T03:32:32.838Z,103481.22
2023-01-23T03:35:02.068Z,103483.81
2023-01-23T03:37:31.214Z,103486.38
2023-01-23T03:40:18.389Z,103491.53
2023-01-23T03:42:48.980Z,103496.72
2023-01-23T03:45:25.519Z,103491.59
2023-01-23T03:47:54.574Z,103495.88
2023-01-23T03:50:23.775Z,103501.91
2023-01-23T03:52:52.827Z,103503.63
2023-01-23T03:55:22.743Z,103501.91
2023-01-23T03:57:53.543Z,103504.53
2023-01-23T04:00:31.666Z,103510.53
2023-01-23T04:03:06.004Z,103501.88
2023-01-23T04:05:35.635Z,103502.78
2023-01-23T04:08:05.117Z,103507.94
2023-01-23T04:10:34.325Z,103496.75
2023-01-23T04:13:09.013Z,103502.75
2023-01-23T04:15:38.261Z,103507.06
2023-01-23T04:18:09.052Z,103507.94
2023-01-23T04:20:40.473Z,103511.34
2023-01-23T04:23:09.602Z,103509.66
2023-01-23T04:25:39.722Z,103513.94
2023-01-23T04:28:15.658Z,103516.50
2023-01-23T04:30:46.330Z,103522.59
2023-01-23T04:33:23.172Z,103520.81
2023-01-23T04:35:54.832Z,103532.06
2023-01-23T04:38:24.285Z,103530.31
2023-01-23T04:40:54.469Z,103526.88
2023-01-23T04:43:25.323Z,103523.44
2023-01-23T04:45:56.738Z,103529.47
2023-01-23T04:48:48.895Z,103530.38
2023-01-23T04:51:18.427Z,103530.34
2023-01-23T04:53:48.028Z,103530.38
2023-01-23T04:56:17.043Z,103520.88
2023-01-23T04:58:49.758Z,103525.19
2023-01-23T05:01:23.134Z,103521.75
2023-01-23T05:03:55.110Z,103525.16
2023-01-23T05:06:24.699Z,103519.16
2023-01-23T05:08:56.949Z,103516.56
2023-01-23T05:11:35.361Z,103530.38
2023-01-23T05:14:06.850Z,103523.47
2023-01-23T05:16:36.352Z,103531.25
2023-01-23T05:19:20.808Z,103537.28
2023-01-23T05:21:50.021Z,103545.91
2023-01-23T05:24:22.551Z,103550.22
2023-01-23T05:26:52.161Z,103554.50
2023-01-23T05:29:23.711Z,103556.25
2023-01-23T05:32:02.534Z,103555.38
2023-01-23T05:34:54.426Z,103561.41
2023-01-23T05:37:26.326Z,103558.81
2023-01-23T05:39:59.652Z,103572.63
2023-01-23T05:42:41.278Z,103565.72
2023-01-23T05:45:37.243Z,103573.50
2023-01-23T05:48:12.621Z,103579.53
2023-01-23T05:50:42.214Z,103579.53
2023-01-23T05:53:11.273Z,103577.78
2023-01-23T05:55:40.629Z,103577.78
2023-01-23T05:58:11.260Z,103583.81
2023-01-23T06:00:59.166Z,103583.81
2023-01-23T06:03:47.634Z,103583.81
2023-01-23T06:06:35.959Z,103589.00
2023-01-23T06:09:05.519Z,103588.13
2023-01-23T06:11:35.245Z,103584.66
2023-01-23T06:14:05.336Z,103585.53
2023-01-23T06:16:36.311Z,103580.34
2023-01-23T06:19:07.244Z,103589.84
2023-01-23T06:21:39.022Z,103589.00
2023-01-23T06:24:09.117Z,103600.22
2023-01-23T06:26:38.343Z,103599.34
2023-01-23T06:29:08.054Z,103595.91
2023-01-23T06:31:39.301Z,103598.47
2023-01-23T06:34:08.757Z,103601.09
2023-01-23T06:36:46.324Z,103595.91
2023-01-23T06:39:16.170Z,103598.47
2023-01-23T06:41:45.829Z,103599.34
2023-01-23T06:44:21.244Z,103601.91
2023-01-23T06:46:53.683Z,103606.25
2023-01-23T06:49:25.548Z,103604.53
2023-01-23T06:51:55.171Z,103606.25
2023-01-23T06:54:26.746Z,103612.28
2023-01-23T06:57:01.815Z,103619.16
2023-01-23T06:59:32.192Z,103618.31
2023-01-23T07:02:03.418Z,103614.00
2023-01-23T07:04:40.790Z,103618.34
2023-01-23T07:07:09.897Z,103622.63
2023-01-23T07:09:38.980Z,103623.47
2023-01-23T07:12:13.037Z,103626.94
2023-01-23T07:14:42.096Z,103631.22
2023-01-23T07:17:14.905Z,103629.50
2023-01-23T07:19:44.081Z,103634.66
2023-01-23T07:22:19.487Z,103634.69
2023-01-23T07:24:48.726Z,103638.16
2023-01-23T07:27:17.980Z,103645.06
2023-01-23T07:29:47.348Z,103640.75
2023-01-23T07:32:17.967Z,103647.63
2023-01-23T07:34:46.982Z,103658.88
2023-01-23T07:37:16.209Z,103646.78
2023-01-23T07:39:45.473Z,103650.22
2023-01-23T07:42:14.473Z,103655.41
2023-01-23T07:44:44.303Z,103655.41
2023-01-23T07:47:13.384Z,103663.13
2023-01-23T07:49:44.029Z,103652.81
2023-01-23T07:52:13.048Z,103656.22
2023-01-23T07:54:42.170Z,103664.00
2023-01-23T07:57:11.244Z,103664.84
2023-01-23T07:59:40.411Z,103665.69
2023-01-23T08:02:10.943Z,103663.97
2023-01-23T08:04:40.416Z,103671.75
2023-01-23T08:07:10.821Z,103672.59
2023-01-23T08:09:40.412Z,103687.25
2023-01-23T08:12:09.488Z,103681.19
2023-01-23T08:14:39.216Z,103687.25
2023-01-23T08:17:08.279Z,103682.91
2023-01-23T08:19:37.288Z,103688.94
2023-01-23T08:22:06.560Z,103688.94
2023-01-23T08:24:37.013Z,103692.41
2023-01-23T08:27:06.163Z,103695.00
2023-01-23T08:29:35.331Z,103695.00
2023-01-23T08:32:04.507Z,103705.34
2023-01-23T08:34:33.681Z,103708.78
2023-01-23T08:37:02.843Z,103705.31
2023-01-23T08:39:31.879Z,103697.53
2023-01-23T08:42:02.288Z,103694.94
2023-01-23T08:44:34.122Z,103694.09
2023-01-23T08:47:03.427Z,103694.94
2023-01-23T08:49:32.544Z,103690.63
2023-01-23T08:52:01.709Z,103700.09
2023-01-23T08:54:30.920Z,103703.59
2023-01-23T08:57:01.592Z,103703.56
2023-01-23T08:59:30.783Z,103711.28
2023-01-23T09:01:59.918Z,103705.25
2023-01-23T09:04:29.146Z,103713.03
2023-01-23T09:06:58.161Z,103715.59
2023-01-23T09:09:27.209Z,103731.16
2023-01-23T09:11:56.552Z,103738.97
2023-01-23T09:14:26.977Z,103737.22
2023-01-23T09:16:56.150Z,103736.34
2023-01-23T09:19:25.230Z,103738.91
2023-01-23T09:21:56.910Z,103738.09
2023-01-23T09:24:25.932Z,103732.91
2023-01-23T09:26:54.983Z,103736.31
2023-01-23T09:29:24.123Z,103730.31
2023-01-23T09:31:54.605Z,103730.25
2023-01-23T09:34:23.712Z,103725.09
2023-01-23T09:36:53.349Z,103725.03
2023-01-23T09:39:22.448Z,103725.91
2023-01-23T09:41:51.497Z,103731.97
2023-01-23T09:44:23.750Z,103732.81
2023-01-23T09:46:57.746Z,103727.59
2023-01-23T09:49:35.874Z,103734.50
2023-01-23T09:52:11.537Z,103728.44
2023-01-23T09:54:44.805Z,103728.44
2023-01-23T09:57:17.342Z,103715.47
2023-01-23T09:59:59.886Z,103722.41
2023-01-23T10:02:31.416Z,103718.13
2023-01-23T10:05:02.848Z,103717.19
2023-01-23T10:07:54.331Z,103716.34
2023-01-23T10:10:55.903Z,103705.91
2023-01-23T10:13:37.575Z,103713.69
2023-01-23T10:16:22.921Z,103710.19
2023-01-23T10:19:03.755Z,103702.31
2023-01-23T10:21:39.979Z,103703.22
2023-01-23T10:24:40.069Z,103704.06
2023-01-23T10:27:19.584Z,103695.41
2023-01-23T10:29:53.439Z,103694.50
2023-01-23T10:32:27.740Z,103704.09
2023-01-23T10:35:03.401Z,103710.19
2023-01-23T10:37:44.300Z,103709.34
2023-01-23T10:40:15.564Z,103708.34
2023-01-23T10:42:44.588Z,103712.63
2023-01-23T10:45:20.349Z,103713.38
2023-01-23T10:47:55.189Z,103716.06
2023-01-23T10:50:39.145Z,103715.06
2023-01-23T10:53:17.607Z,103709.09
2023-01-23T10:55:47.499Z,103721.97
2023-01-23T10:58:30.710Z,103713.41
2023-01-23T11:01:00.018Z,103716.91
2023-01-23T11:03:32.539Z,103720.38
2023-01-23T11:06:06.184Z,103717.69
2023-01-23T11:08:37.219Z,103721.03
2023-01-23T11:11:24.272Z,103714.97
2023-01-23T11:14:06.408Z,103724.53
2023-01-23T11:16:35.957Z,103726.22
2023-01-23T11:19:13.438Z,103723.53
2023-01-23T11:21:54.202Z,103723.53
2023-01-23T11:24:39.109Z,103726.13
2023-01-23T11:27:20.342Z,103733.97
2023-01-23T11:30:32.268Z,103737.38
2023-01-23T11:33:10.012Z,103729.59
2023-01-23T11:36:00.617Z,103725.47
2023-01-23T11:38:37.696Z,103731.34
2023-01-23T11:41:12.482Z,103729.59
2023-01-23T11:43:42.509Z,103722.59
2023-01-23T11:46:31.357Z,103727.16
2023-01-23T11:49:18.667Z,103733.09
2023-01-23T11:51:51.885Z,103737.44
2023-01-23T11:54:47.454Z,103744.31
2023-01-23T11:57:25.433Z,103745.97
2023-01-23T12:00:21.760Z,103747.78
2023-01-23T12:03:18.015Z,103746.00
2023-01-23T12:09:03.619Z,103733.00
2023-01-23T12:11:40.629Z,103735.69
2023-01-23T12:14:17.548Z,103742.56
2023-01-23T12:17:13.590Z,103742.56
2023-01-23T12:20:01.966Z,103733.91
2023-01-23T12:22:44.520Z,103742.47
2023-01-23T12:25:27.426Z,103739.13
2023-01-23T12:28:09.844Z,103745.19
2023-01-23T12:30:56.493Z,103737.34
2023-01-23T12:33:51.437Z,103726.28
2023-01-23T12:37:05.699Z,103738.41
2023-01-23T12:39:53.589Z,103730.56
2023-01-23T12:42:26.844Z,103738.28
2023-01-23T12:45:02.639Z,103741.78
2023-01-23T12:47:35.476Z,103740.13
2023-01-23T12:50:15.299Z,103739.22
2023-01-23T12:52:50.080Z,103735.69
2023-01-23T12:55:24.002Z,103734.81
2023-01-23T12:58:08.320Z,103735.59
2023-01-23T13:00:55.061Z,103725.25
2023-01-23T13:03:45.913Z,103733.03
2023-01-23T13:06:34.725Z,103726.94
2023-01-23T13:09:18.352Z,103727.84
2023-01-23T13:12:21.802Z,103731.47
2023-01-23T13:15:12.502Z,103727.00
2023-01-23T13:17:47.832Z,103730.50
2023-01-23T13:20:44.216Z,103734.72
2023-01-23T13:23:24.994Z,103734.69
2023-01-23T13:26:28.912Z,103735.59
2023-01-23T13:29:02.011Z,103740.81
2023-01-23T13:31:45.382Z,103745.97
2023-01-23T13:34:38.478Z,103740.91
2023-01-23T13:37:55.283Z,103751.22
2023-01-23T13:40:25.526Z,103758.94
2023-01-23T13:42:54.625Z,103753.00
2023-01-23T13:45:32.158Z,103752.97
2023-01-23T14:20:39.790Z,103744.50
2023-01-23T14:23:21.570Z,103748.91
2023-01-23T14:25:52.214Z,103746.25
2023-01-23T14:28:21.468Z,103750.56
2023-01-23T14:30:59.552Z,103741.06
2023-01-23T14:33:29.803Z,103754.03
2023-01-23T14:35:58.845Z,103759.16
2023-01-23T14:38:35.191Z,103756.56
2023-01-23T14:41:09.208Z,103755.72
2023-01-23T14:43:39.208Z,103758.31
2023-01-23T14:46:15.240Z,103751.41
2023-01-23T14:48:46.157Z,103755.75
2023-01-23T14:51:22.226Z,103749.69
2023-01-23T14:53:59.489Z,103753.13
2023-01-23T14:56:32.907Z,103747.09
2023-01-23T14:59:05.095Z,103738.50
2023-01-23T15:01:35.898Z,103744.53
2023-01-23T15:04:07.569Z,103735.03
2023-01-23T15:06:37.792Z,103739.41
2023-01-23T15:09:13.463Z,103745.44
2023-01-23T15:11:44.742Z,103743.69
2023-01-23T15:14:35.895Z,103727.28
2023-01-23T15:17:07.360Z,103728.13
2023-01-23T15:19:38.662Z,103721.28
2023-01-23T15:22:09.611Z,103722.97
2023-01-23T15:24:38.645Z,103726.41
2023-01-23T15:27:25.893Z,103726.44
2023-01-23T15:30:36.066Z,103723.00
2023-01-23T15:33:21.413Z,103717.00
2023-01-23T15:35:50.555Z,103712.66
2023-01-23T15:38:19.917Z,103714.34
2023-01-23T15:40:48.970Z,103716.13
2023-01-23T15:43:20.648Z,103729.09
2023-01-23T15:45:49.743Z,103717.84
2023-01-23T15:48:18.922Z,103723.00
2023-01-23T15:50:48.047Z,103727.38
2023-01-23T15:53:17.437Z,103736.00
2023-01-23T15:55:47.333Z,103745.50
2023-01-23T15:58:17.695Z,103741.22
2023-01-23T16:00:46.770Z,103748.13
2023-01-23T16:03:17.192Z,103737.72
2023-01-23T16:05:46.236Z,103736.00
2023-01-23T16:08:23.056Z,103730.81
2023-01-23T16:10:52.465Z,103742.06
2023-01-23T16:13:23.024Z,103745.53
2023-01-23T16:15:52.648Z,103745.53
2023-01-23T16:18:23.625Z,103745.56
2023-01-23T16:20:52.783Z,103740.38
2023-01-23T16:23:24.653Z,103742.06
2023-01-23T16:25:54.430Z,103750.72
2023-01-23T16:28:26.904Z,103749.91
2023-01-23T16:30:56.019Z,103752.47
2023-01-23T16:33:25.365Z,103754.19
2023-01-23T16:35:55.519Z,103756.78
2023-01-23T16:38:27.906Z,103774.91
2023-01-23T16:40:59.577Z,103757.66
2023-01-23T16:43:30.086Z,103767.19
2023-01-23T16:45:59.360Z,103766.31
2023-01-23T16:48:28.967Z,103768.91
2023-01-23T16:51:02.302Z,103772.34
2023-01-23T16:53:34.070Z,103777.56
2023-01-23T16:56:05.269Z,103779.25
2023-01-23T16:58:39.794Z,103769.72
2023-01-23T17:01:15.054Z,103770.59
2023-01-23T17:03:45.733Z,103780.13
2023-01-23T17:06:18.105Z,103779.28
2023-01-23T17:08:52.572Z,103787.91
2023-01-23T17:11:28.228Z,103786.19
2023-01-23T17:14:02.895Z,103778.44
2023-01-23T17:16:32.383Z,103784.47
2023-01-23T17:19:07.679Z,103800.88
2023-01-23T17:21:37.123Z,103795.72
2023-01-23T17:24:07.003Z,103788.81
2023-01-23T17:26:36.601Z,103798.31
2023-01-23T17:29:07.164Z,103803.50
2023-01-23T17:31:37.150Z,103799.16
2023-01-23T17:34:07.463Z,103803.47
2023-01-23T17:36:37.645Z,103798.31
2023-01-23T17:39:09.130Z,103795.72
2023-01-23T17:41:38.754Z,103793.16
2023-01-23T17:44:10.231Z,103803.53
2023-01-23T17:46:39.722Z,103809.53
2023-01-23T17:49:28.329Z,103808.69
2023-01-23T17:51:58.864Z,103807.81
2023-01-23T17:54:28.540Z,103813.84
2023-01-23T17:56:57.624Z,103816.47
2023-01-23T17:59:28.036Z,103821.66
2023-01-23T18:01:58.450Z,103813.88
2023-01-23T18:04:27.582Z,103816.47
2023-01-23T18:06:56.654Z,103815.63
2023-01-23T18:09:25.742Z,103816.47
2023-01-23T18:11:55.718Z,103812.16
2023-01-23T18:14:43.589Z,103816.47
2023-01-23T18:17:23.391Z,103816.50
2023-01-23T18:19:54.063Z,103822.53
2023-01-23T18:22:23.546Z,103819.06
2023-01-23T18:24:53.466Z,103815.63
2023-01-23T18:27:25.287Z,103829.47
2023-01-23T18:30:15.946Z,103825.13
2023-01-23T18:33:17.433Z,103821.69
2023-01-23T18:36:06.443Z,103819.94
2023-01-23T18:38:43.847Z,103833.78
2023-01-23T18:41:22.102Z,103833.75
2023-01-23T18:43:56.808Z,103828.56
2023-01-23T18:46:28.004Z,103826.88
2023-01-23T18:48:57.558Z,103835.47
2023-01-23T18:51:38.567Z,103834.59
2023-01-23T18:54:20.256Z,103841.53
2023-01-23T18:57:03.881Z,103842.41
2023-01-23T18:59:41.940Z,103840.66
2023-01-23T19:02:24.612Z,103841.50
2023-01-23T19:05:22.603Z,103849.31
2023-01-23T19:07:52.325Z,103844.13
2023-01-23T19:10:28.044Z,103847.59
2023-01-23T19:13:07.630Z,103846.72
2023-01-23T19:15:44.096Z,103850.19
2023-01-23T19:18:39.537Z,103848.47
2023-01-23T19:21:20.345Z,103848.47
2023-01-23T19:23:57.119Z,103852.78
2023-01-23T19:26:28.261Z,103845.88
2023-01-23T19:29:08.429Z,103846.72
2023-01-23T19:32:02.923Z,103845.00
2023-01-23T19:34:35.285Z,103841.56
2023-01-23T19:37:05.080Z,103842.41
2023-01-23T19:39:34.223Z,103832.91
2023-01-23T19:42:03.772Z,103839.81
2023-01-23T19:44:33.604Z,103830.34
2023-01-23T19:47:03.422Z,103829.47
2023-01-23T19:49:33.903Z,103826.88
2023-01-23T19:52:03.488Z,103821.69
2023-01-23T19:54:32.545Z,103824.31
2023-01-23T19:57:01.601Z,103823.44
2023-01-23T19:59:30.676Z,103833.78
2023-01-23T20:02:00.170Z,103832.94
2023-01-23T20:04:29.555Z,103840.69
2023-01-23T20:06:59.996Z,103839.84
2023-01-23T20:09:29.227Z,103842.44
2023-01-23T20:11:58.680Z,103839.84
2023-01-23T20:14:29.470Z,103846.75
2023-01-23T20:16:58.796Z,103849.34
2023-01-23T20:19:27.954Z,103840.72
2023-01-23T20:21:57.108Z,103844.16
2023-01-23T20:24:27.495Z,103838.09
2023-01-23T20:26:56.562Z,103845.88
2023-01-23T20:29:25.618Z,103845.03
2023-01-23T20:31:55.379Z,103847.63
2023-01-23T20:34:27.026Z,103851.06
2023-01-23T20:36:56.318Z,103846.75
2023-01-23T20:39:26.943Z,103840.69
2023-01-23T20:41:56.500Z,103848.47
2023-01-23T20:44:25.953Z,103846.75
2023-01-23T20:46:54.995Z,103849.31
2023-01-23T20:49:24.216Z,103845.03
2023-01-23T20:51:53.276Z,103838.97
2023-01-23T20:54:21.370Z,103851.94
2023-01-23T20:56:51.955Z,103840.69
2023-01-23T20:59:21.460Z,103842.44
2023-01-23T21:02:08.809Z,103844.16
2023-01-23T21:04:39.619Z,103847.63
2023-01-23T21:07:08.650Z,103843.31
2023-01-23T21:09:37.766Z,103845.03
2023-01-23T21:12:08.691Z,103850.22
2023-01-23T21:14:37.761Z,103857.97
2023-01-23T21:17:08.396Z,103868.34
2023-01-23T21:19:38.885Z,103861.44
2023-01-23T21:22:08.649Z,103864.88
2023-01-23T21:24:37.935Z,103859.69
2023-01-23T21:27:08.995Z,103860.56
2023-01-23T21:29:39.590Z,103858.88
2023-01-23T21:32:08.601Z,103867.50
2023-01-23T21:34:38.423Z,103867.50
2023-01-23T21:37:10.787Z,103863.16
2023-01-23T21:39:39.915Z,103865.75
2023-01-23T21:42:10.651Z,103863.19
2023-01-23T21:44:39.693Z,103864.91
2023-01-23T21:47:10.390Z,103868.34
2023-01-23T21:49:39.477Z,103868.34
2023-01-23T21:52:08.516Z,103871.81
2023-01-23T21:54:38.190Z,103870.97
2023-01-23T21:57:07.231Z,103869.22
2023-01-23T21:59:37.678Z,103883.03
2023-01-23T22:02:05.783Z,103877.00
2023-01-23T22:04:34.958Z,103882.16
2023-01-23T22:07:04.172Z,103888.22
2023-01-23T22:09:33.330Z,103890.81
2023-01-23T22:12:02.407Z,103893.41
2023-01-23T22:14:32.236Z,103895.13
2023-01-23T22:17:02.781Z,103899.44
2023-01-23T22:19:31.827Z,103890.81
2023-01-23T22:22:00.900Z,103907.22
2023-01-23T22:24:30.589Z,103906.34
2023-01-23T22:26:59.941Z,103901.16
2023-01-23T22:29:29.061Z,103901.16
2023-01-23T22:31:58.434Z,103896.84
2023-01-23T22:34:29.319Z,103895.13
2023-01-23T22:36:58.427Z,103896.84
2023-01-23T22:39:27.466Z,103886.47
2023-01-23T22:41:57.630Z,103883.03
2023-01-23T22:44:27.144Z,103877.84
2023-01-23T22:46:56.241Z,103877.88
2023-01-23T22:49:25.632Z,103874.41
2023-01-23T22:51:56.009Z,103869.25
2023-01-23T22:54:25.052Z,103871.81
2023-01-23T22:56:54.099Z,103870.13
2023-01-23T22:59:23.116Z,103870.94
2023-01-23T23:01:52.152Z,103872.69
2023-01-23T23:04:22.259Z,103866.66
2023-01-23T23:06:51.287Z,103868.38
2023-01-23T23:09:21.708Z,103875.28
2023-01-23T23:11:51.736Z,103875.28
2023-01-23T23:14:20.832Z,103873.56
2023-01-23T23:16:49.856Z,103876.16
2023-01-23T23:19:18.870Z,103878.72
2023-01-23T23:21:47.929Z,103879.59
2023-01-23T23:24:17.083Z,103882.19
2023-01-23T23:26:49.108Z,103885.66
2023-01-23T23:29:18.383Z,103882.19
2023-01-23T23:31:51.467Z,103880.47
2023-01-23T23:34:20.897Z,103876.13
2023-01-23T23:36:49.946Z,103874.41
2023-01-23T23:39:19.041Z,103881.31
2023-01-23T23:41:49.390Z,103880.44
2023-01-23T23:44:19.077Z,103882.19
2023-01-23T23:46:48.309Z,103880.44
2023-01-23T23:49:17.334Z,103883.91
2023-01-23T23:51:46.366Z,103881.31
2023-01-23T23:54:15.415Z,103886.50
2023-01-23T23:56:44.554Z,103890.81
2023-01-23T23:59:17.154Z,103890.81
